All
Eliwana Airport (Eliwana Mine, WA) WHB Weather
|
Eliwana Mine, WA (WHB / YEWA)
Clear skies
Light winds |
|
73 °F |
WHB Terminal Area Forecast
| Date | Time (AWST) | Flight Rules | Wind Dir. | Speed | Type | Height AGL (ft) | Visibility | Remarks | ||||||
|---|---|---|---|---|---|---|---|---|---|---|---|---|---|---|
| 09-May | 09:00PM | VFR | 100° | 5 kt | Clouds and Visibility are OK | >= 6 miles | ||||||||
| 09-May | 08:00PM | VFR | 100° | 5 kt | Clouds and Visibility are OK | >= 6 miles | ||||||||
| 09-May | 07:00PM | VFR | 100° | 5 kt | Clouds and Visibility are OK | >= 6 miles | ||||||||
| 09-May | 06:00PM | VFR | 100° | 5 kt | Clouds and Visibility are OK | >= 6 miles | ||||||||
Recent WHB METAR history
| Date | Time (AWST) | Flight Rules | Wind Dir. | Speed | Type | Height AGL (ft) | Visibility | Temp (°C) | Temp (°F) | Dew Point (°C) | Dew Point (°F) | Rel. Humid. | Pressure | Density Altitude | Remarks |
|---|---|---|---|---|---|---|---|---|---|---|---|---|---|---|---|
| 09-May | 06:00PM | VFR | 120° | 6 kt | 10000 meters | 23° | 73° | -5° | 23° | 15% | 1018 mb | 2,641 ft | |||
| 09-May | 05:00PM | VFR | 110° | 9 kt | 10000 meters | 25° | 77° | -5° | 23° | 13% | 1017 mb | 2,911 ft | |||
| 09-May | 04:00PM | VFR | 130° | 7 kt | 10000 meters | 25° | 77° | -5° | 23° | 13% | 1017 mb | 2,911 ft | |||
| 09-May | 03:00PM | VFR | 110° | 8 kt | 10000 meters | 26° | 78° | -6° | 21° | 12% | 1017 mb | 3,031 ft | |||
| 09-May | 02:00PM | VFR | 140° | 9 kt | 10000 meters | 26° | 78° | -4° | 24° | 14% | 1018 mb | 3,001 ft | |||
| 09-May | 01:00PM | VFR | 180° | 5 kt | 10000 meters | 25° | 77° | -3° | 26° | 15% | 1019 mb | 2,852 ft | |||
| 09-May | 12:00PM | VFR | 110° | 6 kt | 10000 meters | 23° | 73° | -1° | 30° | 20% | 1020 mb | 2,582 ft | |||
| 09-May | 11:00AM | VFR | 70° | 9 kt | 10000 meters | 23° | 73° | -1° | 30° | 20% | 1021 mb | 2,552 ft | |||
| 09-May | 10:00AM | VFR | 80° | 14 kt | 10000 meters | 21° | 69° | 0° | 32° | 25% | 1021 mb | 2,312 ft | |||
| 09-May | 09:00AM | VFR | 70° | 16 kt | 10000 meters | 20° | 68° | 0° | 32° | 26% | 1021 mb | 2,192 ft | |||
| 09-May | 08:00AM | VFR | 80° | 14 kt | 10000 meters | 19° | 66° | 0° | 32° | 28% | 1021 mb | 2,072 ft | |||
| 09-May | 07:00AM | VFR | 90° | 9 kt | 10000 meters | 17° | 62° | 0° | 32° | 32% | 1021 mb | 1,832 ft | |||
| 09-May | 06:00AM | VFR | 110° | 7 kt | 10000 meters | 15° | 59° | 0° | 32° | 36% | 1020 mb | 1,622 ft | |||
| 09-May | 05:00AM | VFR | 80° | 9 kt | 10000 meters | 17° | 62° | 0° | 32° | 32% | 1020 mb | 1,862 ft | |||
| 09-May | 04:00AM | VFR | 80° | 9 kt | 10000 meters | 18° | 64° | 0° | 32° | 30% | 1020 mb | 1,982 ft | |||
| 09-May | 03:00AM | VFR | 90° | 7 kt | 10000 meters | 18° | 64° | -1° | 30° | 28% | 1020 mb | 1,982 ft | |||
| 09-May | 02:00AM | VFR | 80° | 7 kt | 10000 meters | 18° | 64° | -1° | 30° | 28% | 1020 mb | 1,982 ft | |||
| 09-May | 01:00AM | VFR | 70° | 6 kt | 10000 meters | 18° | 64° | -2° | 28° | 26% | 1020 mb | 1,982 ft | |||
| 09-May | 12:00AM | VFR | 100° | 6 kt | 10000 meters | 18° | 64° | -1° | 30° | 28% | 1020 mb | 1,982 ft | |||
| 08-May | 11:00PM | VFR | 110° | 5 kt | 10000 meters | 19° | 66° | -1° | 30° | 26% | 1020 mb | 2,102 ft | |||
| 08-May | 10:00PM | VFR | 90° | 8 kt | 10000 meters | 21° | 69° | 1° | 33° | 26% | 1020 mb | 2,342 ft | |||
| 08-May | 09:00PM | VFR | 100° | 6 kt | 10000 meters | 22° | 71° | 1° | 33° | 25% | 1020 mb | 2,462 ft | |||
| 08-May | 08:00PM | VFR | 120° | 6 kt | 10000 meters | 22° | 71° | 1° | 33° | 25% | 1019 mb | 2,492 ft | |||
| 08-May | 07:00PM | VFR | 110° | 6 kt | 10000 meters | 24° | 75° | 1° | 33° | 22% | 1018 mb | 2,761 ft |
Login
| Your browser is unsupported. upgrade your browser |
